sim
Sign-in with your pilot id or email,
or register
Callsign
Passwort

Schedule Details

Flight Number: DLH2544 (1)
Departure: Munich Airport (EDDM) at 10:50
Arrival: Kiev Boryspil International Airport (UKBB) at 13:00
Route: Lufthansa Passenger Schedule. Enter filed route here before submitting Pirep.

Weather Information
Getting current METAR information for EDDM 191450Z 05004KT 020V080 CAVOK 22/12 Q1018 NOSIG
Getting current METAR information for UKBB 191430Z 30003MPS 260V320 CAVOK 19/02 Q1020 R36R/CLRD// NOSIG

Schedule Frequency

Route Map